createdAt,value
2019-03-29T00:02:34.037Z,13.36
2019-03-29T00:05:12.747Z,13.35
2019-03-29T00:08:18.678Z,13.32
2019-03-29T00:11:03.440Z,13.28
2019-03-29T00:13:49.293Z,13.27
2019-03-29T00:16:26.009Z,13.28
2019-03-29T00:19:01.326Z,13.32
2019-03-29T00:21:37.232Z,13.33
2019-03-29T00:24:33.400Z,13.34
2019-03-29T00:27:12.820Z,13.38
2019-03-29T00:29:49.985Z,13.39
2019-03-29T00:32:29.251Z,13.42
2019-03-29T00:35:06.014Z,13.42
2019-03-29T00:37:52.962Z,13.44
2019-03-29T00:40:17.742Z,13.48
2019-03-29T00:42:53.798Z,13.48
2019-03-29T00:45:38.520Z,13.45
2019-03-29T00:48:22.196Z,13.41
2019-03-29T00:51:12.162Z,13.45
2019-03-29T00:53:46.041Z,13.45
2019-03-29T00:56:20.086Z,13.40
2019-03-29T00:58:58.392Z,13.38
2019-03-29T01:01:29.841Z,13.37
2019-03-29T01:04:11.515Z,13.39
2019-03-29T01:06:46.379Z,13.37
2019-03-29T01:09:24.690Z,13.47
2019-03-29T01:11:58.588Z,13.53
2019-03-29T01:14:30.742Z,13.53
2019-03-29T01:17:07.473Z,13.54
2019-03-29T01:19:43.259Z,13.54
2019-03-29T01:22:20.237Z,13.55
2019-03-29T01:24:51.580Z,13.54
2019-03-29T01:27:24.895Z,13.50
2019-03-29T01:30:04.803Z,13.51
2019-03-29T01:32:42.130Z,13.53
2019-03-29T01:35:13.365Z,13.55
2019-03-29T01:37:52.613Z,13.57
2019-03-29T01:40:28.119Z,13.64
2019-03-29T01:43:02.364Z,13.67
2019-03-29T01:45:33.836Z,13.64
2019-03-29T01:48:08.536Z,13.65
2019-03-29T01:50:41.219Z,13.61
2019-03-29T01:53:12.686Z,13.60
2019-03-29T01:55:48.762Z,13.60
2019-03-29T01:58:20.432Z,13.61
2019-03-29T02:00:52.986Z,13.62
2019-03-29T02:03:26.012Z,13.58
2019-03-29T02:05:58.834Z,13.51
2019-03-29T02:08:35.839Z,13.46
2019-03-29T02:11:09.299Z,13.45
2019-03-29T02:13:41.860Z,13.43
2019-03-29T02:16:15.397Z,13.39
2019-03-29T02:18:51.965Z,13.42
2019-03-29T02:21:31.814Z,13.47
2019-03-29T02:24:10.031Z,13.49
2019-03-29T02:26:50.468Z,13.43
2019-03-29T02:29:24.587Z,13.30
2019-03-29T02:31:57.032Z,13.27
2019-03-29T02:34:28.720Z,13.29
2019-03-29T02:37:05.218Z,13.31
2019-03-29T02:39:42.771Z,13.33
2019-03-29T02:42:11.563Z,13.34
2019-03-29T02:44:43.238Z,13.32
2019-03-29T02:47:17.865Z,13.32
2019-03-29T02:49:54.222Z,13.36
2019-03-29T02:52:27.805Z,13.41
2019-03-29T02:54:59.895Z,13.42
2019-03-29T02:57:32.218Z,13.44
2019-03-29T03:00:10.580Z,13.44
2019-03-29T03:02:43.060Z,13.44
2019-03-29T03:05:16.021Z,13.47
2019-03-29T03:07:49.015Z,13.45
2019-03-29T03:10:23.420Z,13.43
2019-03-29T03:12:57.331Z,13.41
2019-03-29T03:15:30.676Z,13.41
2019-03-29T03:18:07.795Z,13.41
2019-03-29T03:20:40.598Z,13.43
2019-03-29T03:23:14.732Z,13.46
2019-03-29T03:25:46.378Z,13.47
2019-03-29T03:28:21.257Z,13.47
2019-03-29T03:30:55.213Z,13.48
2019-03-29T03:33:26.986Z,13.47
2019-03-29T03:36:00.539Z,13.46
2019-03-29T03:38:36.546Z,13.48
2019-03-29T03:41:12.266Z,13.53
2019-03-29T03:43:44.223Z,13.56
2019-03-29T03:46:15.791Z,13.57
2019-03-29T03:48:50.005Z,13.56
2019-03-29T03:51:23.574Z,13.51
2019-03-29T03:53:58.922Z,13.53
2019-03-29T03:56:39.326Z,13.54
2019-03-29T03:59:17.036Z,13.51
2019-03-29T04:01:48.861Z,13.51
2019-03-29T04:04:23.613Z,13.53
2019-03-29T04:06:55.868Z,13.51
2019-03-29T04:09:49.441Z,13.49
2019-03-29T04:12:12.585Z,13.50
2019-03-29T04:14:47.138Z,13.51
2019-03-29T04:17:23.468Z,13.46
2019-03-29T04:19:59.340Z,13.41
2019-03-29T04:22:37.310Z,13.38
2019-03-29T04:25:11.936Z,13.43
2019-03-29T04:27:51.858Z,13.41
2019-03-29T04:30:26.434Z,13.37
2019-03-29T04:33:05.127Z,13.37
2019-03-29T04:35:39.823Z,13.35
2019-03-29T04:38:22.265Z,13.35
2019-03-29T04:40:58.686Z,13.38
2019-03-29T04:43:36.730Z,13.34
2019-03-29T04:46:18.542Z,13.33
2019-03-29T04:49:14.406Z,13.31
2019-03-29T04:51:47.548Z,13.30
2019-03-29T04:54:22.320Z,13.29
2019-03-29T04:56:55.388Z,13.29
2019-03-29T04:59:29.485Z,13.31
2019-03-29T05:02:04.627Z,13.31
2019-03-29T05:04:56.875Z,13.35
2019-03-29T05:07:28.683Z,13.41
2019-03-29T05:10:20.010Z,13.44
2019-03-29T05:12:41.276Z,13.43
2019-03-29T05:15:13.701Z,13.41
2019-03-29T05:17:47.738Z,13.38
2019-03-29T05:20:19.718Z,13.33
2019-03-29T05:22:52.095Z,13.32
2019-03-29T05:25:25.575Z,13.30
2019-03-29T05:27:58.051Z,13.28
2019-03-29T05:30:35.588Z,13.29
2019-03-29T05:33:19.803Z,13.23
2019-03-29T05:35:51.211Z,13.22
2019-03-29T05:38:31.953Z,13.23
2019-03-29T05:41:11.800Z,13.22
2019-03-29T05:44:00.438Z,13.18
2019-03-29T05:46:35.969Z,13.29
2019-03-29T05:49:16.091Z,13.32
2019-03-29T05:51:53.073Z,13.27
2019-03-29T05:54:26.204Z,13.18
2019-03-29T05:56:57.663Z,13.15
2019-03-29T05:59:29.486Z,13.16
2019-03-29T06:02:02.381Z,13.14
2019-03-29T06:04:36.723Z,13.11
2019-03-29T06:07:11.204Z,13.09
2019-03-29T06:10:02.115Z,13.11
2019-03-29T06:12:35.805Z,13.20
2019-03-29T06:15:09.855Z,13.30
2019-03-29T06:17:49.008Z,13.39
2019-03-29T06:20:22.757Z,13.42
2019-03-29T06:22:59.142Z,13.38
2019-03-29T06:25:35.405Z,13.42
2019-03-29T06:28:08.750Z,13.54
2019-03-29T06:30:51.835Z,13.61
2019-03-29T06:33:23.796Z,13.61
2019-03-29T06:35:58.712Z,13.61
2019-03-29T06:38:39.789Z,13.67
2019-03-29T06:41:12.834Z,13.71
2019-03-29T06:43:57.083Z,13.77
2019-03-29T06:46:29.222Z,13.80
2019-03-29T06:49:00.777Z,13.85
2019-03-29T06:51:34.023Z,13.92
2019-03-29T06:54:11.006Z,13.91
2019-03-29T06:56:49.315Z,13.94
2019-03-29T06:59:23.349Z,14.01
2019-03-29T07:01:57.755Z,14.02
2019-03-29T07:04:29.399Z,14.12
2019-03-29T07:07:00.978Z,14.25
2019-03-29T07:09:50.850Z,14.41
2019-03-29T07:12:22.297Z,14.50
2019-03-29T07:14:55.284Z,14.57
2019-03-29T07:17:26.942Z,14.48
2019-03-29T07:20:01.150Z,14.39
2019-03-29T07:22:34.631Z,14.33
2019-03-29T07:25:10.274Z,14.35
2019-03-29T07:27:45.796Z,14.39
2019-03-29T07:30:17.015Z,14.37
2019-03-29T07:32:50.978Z,14.35
2019-03-29T07:35:25.486Z,14.42
2019-03-29T07:37:58.957Z,14.57
2019-03-29T07:40:30.740Z,14.74
2019-03-29T07:43:04.447Z,14.77
2019-03-29T07:45:39.055Z,14.75
2019-03-29T07:48:12.040Z,14.68
2019-03-29T07:50:48.900Z,14.72
2019-03-29T07:53:20.441Z,14.86
2019-03-29T07:56:03.303Z,14.83
2019-03-29T07:58:39.966Z,14.96
2019-03-29T08:01:12.103Z,15.19
2019-03-29T08:03:43.951Z,15.28
2019-03-29T08:06:22.028Z,15.28
2019-03-29T08:08:53.526Z,15.37
2019-03-29T08:11:27.627Z,15.36
2019-03-29T08:14:00.850Z,15.29
2019-03-29T08:16:36.070Z,15.28
2019-03-29T08:19:09.979Z,15.33
2019-03-29T08:21:47.195Z,15.46
2019-03-29T08:24:20.622Z,15.59
2019-03-29T08:26:53.606Z,15.68
2019-03-29T08:29:25.001Z,15.80
2019-03-29T08:32:01.765Z,15.88
2019-03-29T08:34:39.298Z,16.00
2019-03-29T08:37:11.705Z,16.00
2019-03-29T08:39:50.391Z,15.95
2019-03-29T08:42:21.937Z,16.12
2019-03-29T08:45:19.230Z,16.28
2019-03-29T08:48:11.736Z,16.45
2019-03-29T08:51:02.283Z,16.36
2019-03-29T08:53:35.903Z,16.32
2019-03-29T08:56:15.458Z,16.34
2019-03-29T08:58:50.324Z,16.37
2019-03-29T09:01:26.957Z,16.43
2019-03-29T09:04:21.696Z,16.44
2019-03-29T09:06:56.223Z,16.40
2019-03-29T09:09:28.360Z,16.31
2019-03-29T09:12:13.645Z,16.37
2019-03-29T09:14:48.741Z,16.50
2019-03-29T09:17:55.727Z,16.56
2019-03-29T09:20:35.880Z,16.46
2019-03-29T09:23:15.244Z,16.47
2019-03-29T09:25:54.348Z,16.49
2019-03-29T09:28:35.330Z,16.56
2019-03-29T09:31:08.206Z,16.59
2019-03-29T09:33:50.723Z,16.61
2019-03-29T09:36:28.828Z,16.55
2019-03-29T09:39:06.920Z,16.52
2019-03-29T09:41:42.892Z,16.58
2019-03-29T09:44:25.014Z,16.66
2019-03-29T09:46:56.668Z,16.68
2019-03-29T09:49:39.703Z,16.52
2019-03-29T09:52:15.979Z,16.55
2019-03-29T09:54:48.924Z,16.47
2019-03-29T09:57:36.985Z,16.53
2019-03-29T09:59:57.014Z,16.49
2019-03-29T10:02:30.431Z,16.72
2019-03-29T10:05:31.016Z,16.87
2019-03-29T10:08:06.497Z,16.89
2019-03-29T10:11:06.939Z,16.75
2019-03-29T10:14:33.471Z,16.72
2019-03-29T10:17:06.978Z,16.80
2019-03-29T10:19:42.372Z,16.80
2019-03-29T10:22:18.288Z,16.76
2019-03-29T10:25:02.913Z,16.67
2019-03-29T10:27:51.287Z,16.80
2019-03-29T10:30:59.179Z,16.85
2019-03-29T10:33:40.570Z,16.64
2019-03-29T10:36:17.844Z,16.71
2019-03-29T10:39:00.529Z,16.94
2019-03-29T10:41:34.606Z,17.02
2019-03-29T10:44:37.172Z,17.16
2019-03-29T10:47:19.771Z,17.34
2019-03-29T10:50:04.933Z,17.64
2019-03-29T10:52:37.916Z,17.64
2019-03-29T10:55:11.770Z,17.70
2019-03-29T10:57:48.708Z,17.79
2019-03-29T11:00:40.220Z,17.88
2019-03-29T11:03:12.215Z,18.17
2019-03-29T11:06:07.535Z,18.16
2019-03-29T11:08:54.007Z,18.07
2019-03-29T11:11:28.083Z,18.16
2019-03-29T11:14:34.945Z,18.26
2019-03-29T11:17:17.203Z,18.18
2019-03-29T11:19:53.739Z,18.30
2019-03-29T11:22:36.205Z,18.41
2019-03-29T11:25:12.219Z,18.37
2019-03-29T11:27:47.569Z,18.19
2019-03-29T11:30:21.150Z,18.16
2019-03-29T11:32:55.461Z,18.20
2019-03-29T11:35:27.574Z,18.29
2019-03-29T11:37:59.548Z,18.39
2019-03-29T11:40:35.478Z,18.44
2019-03-29T11:43:07.574Z,18.38
2019-03-29T11:45:44.638Z,18.38
2019-03-29T11:48:22.450Z,18.50
2019-03-29T11:50:59.414Z,18.65
2019-03-29T11:53:33.015Z,18.57
2019-03-29T11:56:17.897Z,18.44
2019-03-29T11:58:52.045Z,18.65
2019-03-29T12:01:28.978Z,18.72
2019-03-29T12:04:05.555Z,18.66
2019-03-29T12:06:48.456Z,18.53
2019-03-29T12:09:20.956Z,18.30
2019-03-29T12:12:13.022Z,18.22
2019-03-29T12:14:49.841Z,18.27
2019-03-29T12:17:33.798Z,18.56
2019-03-29T12:20:07.344Z,18.92
2019-03-29T12:22:42.364Z,19.29
2019-03-29T12:25:15.582Z,19.54
2019-03-29T12:28:17.166Z,19.39
2019-03-29T12:30:52.391Z,19.35
2019-03-29T12:33:26.406Z,19.53
2019-03-29T12:35:58.309Z,19.44
2019-03-29T12:38:38.461Z,19.25
2019-03-29T12:41:10.404Z,19.34
2019-03-29T12:43:54.841Z,19.60
2019-03-29T12:46:25.270Z,19.73
2019-03-29T12:49:00.052Z,19.71
2019-03-29T12:51:35.429Z,19.83
2019-03-29T12:54:17.187Z,19.72
2019-03-29T12:56:54.305Z,19.54
2019-03-29T12:59:29.137Z,19.43
2019-03-29T13:02:00.906Z,19.28
2019-03-29T13:04:47.557Z,18.82
2019-03-29T13:07:19.259Z,18.43
2019-03-29T13:09:52.967Z,18.41
2019-03-29T13:12:32.953Z,18.42
2019-03-29T13:15:07.805Z,18.78
2019-03-29T13:18:02.541Z,18.85
2019-03-29T13:21:02.880Z,18.69
2019-03-29T13:23:42.967Z,19.01
2019-03-29T13:26:16.123Z,19.47
2019-03-29T13:28:56.775Z,19.58
2019-03-29T13:31:30.187Z,19.45
2019-03-29T13:34:19.443Z,19.02
2019-03-29T13:36:56.907Z,19.11
2019-03-29T13:40:25.116Z,19.24
2019-03-29T13:42:56.693Z,19.08
2019-03-29T13:45:35.615Z,19.12
2019-03-29T13:48:10.153Z,18.99
2019-03-29T13:50:43.855Z,19.16
2019-03-29T13:53:19.675Z,19.12
2019-03-29T13:56:15.768Z,18.87
2019-03-29T13:58:50.837Z,18.88
2019-03-29T14:01:24.876Z,18.93
2019-03-29T14:03:58.052Z,18.98
2019-03-29T14:07:35.767Z,19.12
2019-03-29T14:10:16.324Z,19.08
2019-03-29T14:12:55.931Z,19.17
2019-03-29T14:15:27.511Z,19.22
2019-03-29T14:18:07.261Z,19.07
2019-03-29T14:20:45.461Z,19.02
2019-03-29T14:23:19.876Z,19.00
2019-03-29T14:25:55.938Z,18.99
2019-03-29T14:28:33.925Z,18.88
2019-03-29T14:31:15.287Z,18.90
2019-03-29T14:33:50.753Z,19.04
2019-03-29T14:36:32.463Z,19.03
2019-03-29T14:39:23.370Z,19.08
2019-03-29T14:41:58.004Z,18.97
2019-03-29T14:44:33.873Z,18.97
2019-03-29T14:47:22.491Z,18.90
2019-03-29T14:50:07.624Z,18.85
2019-03-29T14:52:48.234Z,18.75
2019-03-29T14:55:24.429Z,18.58
2019-03-29T14:57:56.553Z,18.58
2019-03-29T15:00:43.928Z,18.70
2019-03-29T15:03:42.688Z,18.79
2019-03-29T15:06:52.686Z,18.84
2019-03-29T15:09:31.582Z,18.97
2019-03-29T15:15:47.065Z,18.69
2019-03-29T15:18:39.943Z,18.48
2019-03-29T15:21:30.497Z,18.44
2019-03-29T15:24:16.049Z,18.39
2019-03-29T15:26:58.607Z,18.07
2019-03-29T15:29:30.223Z,18.05
2019-03-29T15:32:03.106Z,18.05
2019-03-29T15:34:40.998Z,18.03
2019-03-29T15:37:20.141Z,17.84
2019-03-29T15:39:56.147Z,17.67
2019-03-29T15:42:29.901Z,17.57
2019-03-29T15:45:01.397Z,17.52
2019-03-29T15:47:32.799Z,17.53
2019-03-29T15:50:12.590Z,17.54
2019-03-29T15:52:44.770Z,17.63
2019-03-29T15:55:26.367Z,17.65
2019-03-29T15:58:53.535Z,17.56
2019-03-29T16:02:39.878Z,17.39
2019-03-29T16:10:09.549Z,17.44
2019-03-29T16:13:07.746Z,17.30
2019-03-29T16:15:57.185Z,17.29
2019-03-29T16:18:31.365Z,17.25
2019-03-29T16:21:06.242Z,17.19
2019-03-29T16:23:50.727Z,17.05
2019-03-29T16:26:28.395Z,17.00
2019-03-29T16:28:56.132Z,16.94
2019-03-29T16:31:28.209Z,16.95
2019-03-29T16:34:37.179Z,16.89
2019-03-29T16:37:57.923Z,16.86
2019-03-29T16:40:40.075Z,16.88
2019-03-29T16:43:18.261Z,16.87
2019-03-29T16:45:55.992Z,16.75
2019-03-29T16:48:41.310Z,16.68
2019-03-29T16:51:44.855Z,16.71
2019-03-29T16:54:31.070Z,16.71
2019-03-29T16:58:02.081Z,16.66
2019-03-29T17:01:10.820Z,16.54
2019-03-29T17:04:31.828Z,16.48
2019-03-29T17:07:07.539Z,16.47
2019-03-29T17:10:37.162Z,16.48
2019-03-29T17:13:40.703Z,16.45
2019-03-29T17:16:47.298Z,16.41
2019-03-29T17:20:37.798Z,16.41
2019-03-29T17:23:11.384Z,16.35
2019-03-29T17:25:48.156Z,16.33
2019-03-29T17:28:27.780Z,16.22
2019-03-29T17:31:33.062Z,16.14
2019-03-29T17:34:13.762Z,16.10
2019-03-29T17:36:54.579Z,16.06
2019-03-29T17:39:53.871Z,16.02
2019-03-29T17:42:30.644Z,15.99
2019-03-29T17:45:08.911Z,15.96
2019-03-29T17:47:47.057Z,15.94
2019-03-29T17:50:28.456Z,15.90
2019-03-29T17:53:03.802Z,15.87
2019-03-29T17:55:40.253Z,15.84
2019-03-29T17:58:19.566Z,15.81
2019-03-29T18:00:51.582Z,15.74
2019-03-29T18:03:26.847Z,15.71
2019-03-29T18:06:06.005Z,15.78
2019-03-29T18:13:34.799Z,15.59
2019-03-29T18:30:05.439Z,15.35
2019-03-29T18:33:55.039Z,15.29
2019-03-29T18:53:04.012Z,15.02
2019-03-29T18:56:09.204Z,15.00
2019-03-29T18:59:17.316Z,14.98
2019-03-29T19:02:06.542Z,14.89
2019-03-29T19:04:41.019Z,14.82
2019-03-29T19:07:21.305Z,14.78
2019-03-29T19:10:12.903Z,14.74
2019-03-29T19:13:07.790Z,14.71
2019-03-29T19:16:24.612Z,14.65
2019-03-29T19:18:50.767Z,14.57
2019-03-29T19:25:34.538Z,14.19
2019-03-29T19:28:19.555Z,14.15
2019-03-29T19:36:18.422Z,13.90
2019-03-29T19:44:16.822Z,13.75
2019-03-29T19:47:13.557Z,13.72
2019-03-29T19:50:51.368Z,13.69
2019-03-29T19:54:07.311Z,13.62
2019-03-29T19:58:56.361Z,13.58
2019-03-29T20:05:50.537Z,13.49
2019-03-29T20:13:55.505Z,13.53
2019-03-29T20:21:49.858Z,13.51
2019-03-29T20:25:23.888Z,13.45
2019-03-29T20:33:24.420Z,13.35
2019-03-29T20:37:14.014Z,13.30
2019-03-29T20:40:32.222Z,13.14
2019-03-29T20:43:27.833Z,12.92
2019-03-29T20:46:10.053Z,12.77
2019-03-29T20:48:49.670Z,12.71
2019-03-29T21:17:09.555Z,12.21
2019-03-29T21:19:47.278Z,12.30
2019-03-29T21:23:02.161Z,12.36
2019-03-29T21:27:19.685Z,12.42
2019-03-29T21:30:25.086Z,12.37
2019-03-29T21:38:37.471Z,12.22
2019-03-29T21:59:33.374Z,12.09
2019-03-29T22:06:59.737Z,11.85
2019-03-29T22:09:36.751Z,11.90
2019-03-29T22:12:06.207Z,11.93
2019-03-29T22:14:45.498Z,11.99
2019-03-29T22:29:25.118Z,11.79
2019-03-29T22:32:04.650Z,11.82
2019-03-29T22:34:37.645Z,11.83
2019-03-29T22:37:12.360Z,11.83
2019-03-29T22:39:47.279Z,11.81
2019-03-29T22:42:21.308Z,11.81
2019-03-29T22:44:54.390Z,11.84
2019-03-29T22:48:52.513Z,11.86
2019-03-29T22:55:25.580Z,11.77
2019-03-29T22:57:59.162Z,11.78
2019-03-29T23:00:44.417Z,11.81
2019-03-29T23:03:24.434Z,11.72
2019-03-29T23:05:58.251Z,11.67
2019-03-29T23:08:33.278Z,11.65
2019-03-29T23:11:08.400Z,11.64
2019-03-29T23:14:30.315Z,11.61
2019-03-29T23:18:16.406Z,11.60
2019-03-29T23:20:52.741Z,11.53
2019-03-29T23:23:27.926Z,11.49
2019-03-29T23:26:02.659Z,11.48
2019-03-29T23:29:42.362Z,11.45
2019-03-29T23:32:14.203Z,11.36
2019-03-29T23:39:49.778Z,11.34
2019-03-29T23:42:24.636Z,11.24
2019-03-29T23:46:25.350Z,11.21
